Time;durP1;ratioP1;P1;durP2;ratioP2;P2;SDS_P1;SDS_P2;PMS_P1;PMS_P2;Temp;Humidity;BMP_temperature;BMP_pressure;BME280_temperature;BME280_humidity;BME280_pressure;Samples;Min_cycle;Max_cycle;Signal;HPM_P1;HPM_P2
2021/03/08 00:00:38;;;;;;;6.10;2.67;;;3.90;72.90;;;;;;4978876;28;20569;-77
2021/03/08 00:03:05;;;;;;;4.50;1.92;;;3.90;72.90;;;;;;4976175;28;20045;-76
2021/03/08 00:05:32;;;;;;;4.93;2.28;;;3.80;72.90;;;;;;4979272;28;20469;-77
2021/03/08 00:07:58;;;;;;;5.50;2.10;;;3.90;72.90;;;;;;4978889;28;20492;-77
2021/03/08 00:10:23;;;;;;;5.75;2.20;;;3.90;72.90;;;;;;4960549;28;20051;-76
2021/03/08 00:12:50;;;;;;;5.13;2.15;;;3.90;72.90;;;;;;4980208;28;20039;-77
2021/03/08 00:15:18;;;;;;;7.25;2.97;;;3.90;72.90;;;;;;4979020;28;20035;-77
2021/03/08 00:17:44;;;;;;;4.13;2.10;;;3.90;72.90;;;;;;4978243;28;20043;-77
2021/03/08 00:20:13;;;;;;;4.35;2.15;;;3.90;72.90;;;;;;4961650;28;20043;-76
2021/03/08 00:22:39;;;;;;;6.40;2.72;;;3.90;73.00;;;;;;4984723;28;20058;-77
2021/03/08 00:25:08;;;;;;;5.50;2.13;;;3.90;73.00;;;;;;4977476;28;20039;-77
2021/03/08 00:27:35;;;;;;;4.75;2.22;;;4.00;73.10;;;;;;4977576;28;20046;-77
2021/03/08 00:30:00;;;;;;;5.65;2.28;;;3.90;73.10;;;;;;4975667;28;20031;-77
2021/03/08 00:32:26;;;;;;;5.47;2.30;;;3.90;73.10;;;;;;4959983;28;20477;-77
2021/03/08 00:34:52;;;;;;;3.75;1.85;;;4.00;73.20;;;;;;4979627;28;20062;-77
2021/03/08 00:37:18;;;;;;;4.38;2.20;;;3.90;73.20;;;;;;4976653;28;20161;-77
2021/03/08 00:39:44;;;;;;;4.63;2.13;;;3.90;73.20;;;;;;4977009;28;20050;-77
2021/03/08 00:42:09;;;;;;;3.50;1.95;;;3.90;73.20;;;;;;4975615;28;20039;-77
2021/03/08 00:44:35;;;;;;;3.83;1.60;;;3.90;73.30;;;;;;4960928;28;20074;-77
2021/03/08 00:47:01;;;;;;;4.35;1.98;;;3.90;73.30;;;;;;4976506;28;20129;-77
2021/03/08 00:49:26;;;;;;;4.32;1.90;;;3.90;73.40;;;;;;4976031;28;20448;-77
2021/03/08 00:51:52;;;;;;;5.15;2.17;;;3.90;73.40;;;;;;4974662;28;20047;-77
2021/03/08 00:54:18;;;;;;;4.95;2.10;;;3.90;73.40;;;;;;4979787;28;20500;-77
2021/03/08 00:56:43;;;;;;;3.30;1.65;;;3.90;73.50;;;;;;4975994;28;20125;-77
2021/03/08 00:59:09;;;;;;;4.22;2.20;;;3.90;73.60;;;;;;4957623;28;20074;-77
2021/03/08 01:01:35;;;;;;;4.00;2.00;;;3.90;73.60;;;;;;4957838;28;20119;-77
2021/03/08 01:04:00;;;;;;;3.72;1.90;;;3.80;73.70;;;;;;4976016;28;20119;-77
2021/03/08 01:06:26;;;;;;;3.63;1.77;;;3.90;74.40;;;;;;4957388;28;20552;-77
2021/03/08 01:08:52;;;;;;;3.05;1.55;;;3.90;73.90;;;;;;4956981;28;20042;-77
2021/03/08 01:11:18;;;;;;;3.67;1.60;;;3.90;73.90;;;;;;4957308;28;20086;-77
2021/03/08 01:13:43;;;;;;;3.50;1.73;;;3.90;73.90;;;;;;4974263;28;20051;-77
2021/03/08 01:16:09;;;;;;;4.82;1.80;;;3.80;73.90;;;;;;4975363;28;20045;-77
2021/03/08 01:18:35;;;;;;;5.32;2.10;;;3.90;74.00;;;;;;4975538;28;20035;-77
2021/03/08 01:21:01;;;;;;;2.70;1.58;;;3.90;74.00;;;;;;4975997;28;20043;-77
2021/03/08 01:23:26;;;;;;;4.75;1.98;;;3.80;74.00;;;;;;4974357;28;20023;-77
2021/03/08 01:25:52;;;;;;;4.32;1.90;;;3.80;74.00;;;;;;4958819;28;20501;-77
2021/03/08 01:28:18;;;;;;;3.10;1.58;;;3.80;74.10;;;;;;4957626;28;20073;-77
2021/03/08 01:30:45;;;;;;;3.03;1.52;;;3.80;74.10;;;;;;4974722;28;20572;-77
2021/03/08 01:33:11;;;;;;;2.83;1.42;;;3.90;74.20;;;;;;4974859;28;20121;-77
2021/03/08 01:35:38;;;;;;;2.88;1.48;;;3.90;74.30;;;;;;4974669;28;20050;-77
2021/03/08 01:38:05;;;;;;;3.80;1.50;;;3.80;74.30;;;;;;4974952;28;20072;-77
2021/03/08 01:40:33;;;;;;;3.75;1.67;;;3.80;74.30;;;;;;4974040;28;20146;-77
2021/03/08 01:42:59;;;;;;;3.85;1.58;;;3.90;74.40;;;;;;4972920;28;20066;-77
2021/03/08 01:45:25;;;;;;;2.35;1.20;;;3.80;74.40;;;;;;4973913;28;20035;-77
2021/03/08 01:47:51;;;;;;;3.22;1.75;;;3.80;74.50;;;;;;4973756;28;20031;-77
2021/03/08 01:50:33;;;;;;;3.22;1.60;;;3.80;74.60;;;;;;4973905;28;20118;-77
2021/03/08 01:52:58;;;;;;;;;;;3.70;74.60;;;;;;4973691;28;20047;-78
2021/03/08 01:55:26;;;;;;;1.98;1.05;;;3.70;74.60;;;;;;4955473;28;19929;-78
2021/03/08 01:57:52;;;;;;;3.55;1.52;;;3.70;74.60;;;;;;4972737;28;20078;-78
2021/03/08 02:00:18;;;;;;;2.60;0.98;;;3.70;74.60;;;;;;4955633;28;20118;-77
2021/03/08 02:02:45;;;;;;;2.25;1.25;;;3.70;74.70;;;;;;4974266;28;20027;-77
2021/03/08 02:05:16;;;;;;;3.67;1.77;;;3.70;74.80;;;;;;4972592;28;20041;-78
2021/03/08 02:07:42;;;;;;;3.58;1.67;;;3.60;74.80;;;;;;4973156;28;20043;-78
2021/03/08 02:10:12;;;;;;;3.25;1.45;;;3.70;74.90;;;;;;4956712;28;20389;-78
2021/03/08 02:13:04;;;;;;;3.85;1.88;;;3.60;74.90;;;;;;4955756;28;20339;-78
2021/03/08 02:16:09;;;;;;;2.28;1.33;;;3.60;75.10;;;;;;4960765;28;20039;-78
2021/03/08 02:18:56;;;;;;;4.80;2.08;;;3.50;75.10;;;;;;4945559;28;20059;-78
2021/03/08 02:21:59;;;;;;;4.75;1.92;;;3.50;75.00;;;;;;4974849;28;20050;-78
2021/03/08 02:24:52;;;;;;;4.28;1.92;;;3.50;75.10;;;;;;4961087;28;20130;-78
2021/03/08 02:27:37;;;;;;;4.60;1.98;;;3.50;75.10;;;;;;4973698;28;20057;-78
2021/03/08 02:30:20;;;;;;;4.55;2.00;;;3.50;75.10;;;;;;4970743;28;20491;-78
2021/03/08 02:32:49;;;;;;;4.28;2.17;;;3.50;75.20;;;;;;4972283;28;20043;-78
2021/03/08 02:35:19;;;;;;;4.65;1.90;;;3.40;75.20;;;;;;4955168;28;20121;-78
2021/03/08 02:37:51;;;;;;;4.25;1.77;;;3.50;75.30;;;;;;4972456;28;20053;-78
2021/03/08 02:40:23;;;;;;;4.20;1.73;;;3.40;75.30;;;;;;4972449;28;20035;-78
2021/03/08 02:42:53;;;;;;;4.95;1.90;;;3.40;75.40;;;;;;4972079;28;20030;-78
2021/03/08 02:45:23;;;;;;;4.68;1.90;;;3.40;75.50;;;;;;4971062;28;20122;-78
2021/03/08 02:47:51;;;;;;;5.05;1.92;;;3.40;75.50;;;;;;4972051;28;20039;-78
2021/03/08 02:50:19;;;;;;;4.82;2.45;;;3.40;75.50;;;;;;4972743;28;20101;-78
2021/03/08 02:52:54;;;;;;;4.57;2.03;;;3.30;75.60;;;;;;4975243;28;20043;-78
2021/03/08 02:55:25;;;;;;;4.40;1.70;;;3.30;75.60;;;;;;4972362;28;20118;-78
2021/03/08 02:57:52;;;;;;;3.75;1.85;;;3.20;75.60;;;;;;4972056;28;20039;-78
2021/03/08 03:00:19;;;;;;;4.05;2.10;;;3.40;75.80;;;;;;4972021;28;20118;-78
2021/03/08 03:02:46;;;;;;;4.30;2.10;;;3.30;75.70;;;;;;4923056;28;20031;-77
2021/03/08 03:05:14;;;;;;;3.88;2.10;;;3.40;75.80;;;;;;4954733;28;20086;-77
2021/03/08 03:07:45;;;;;;;3.42;1.50;;;3.30;75.80;;;;;;4954782;28;20039;-78
2021/03/08 03:10:12;;;;;;;4.82;2.00;;;3.30;75.90;;;;;;4971965;28;20405;-78
2021/03/08 03:12:40;;;;;;;3.08;1.58;;;3.30;75.90;;;;;;4971469;28;20424;-78
2021/03/08 03:15:08;;;;;;;3.58;1.45;;;3.30;75.80;;;;;;4972176;28;20042;-78
2021/03/08 03:17:36;;;;;;;2.50;1.20;;;3.40;76.50;;;;;;4970357;28;20096;-78
2021/03/08 03:20:07;;;;;;;2.63;1.17;;;3.30;75.80;;;;;;4936556;28;20031;-78
2021/03/08 03:22:33;;;;;;;2.58;1.38;;;3.40;75.90;;;;;;4955774;28;20129;-78
2021/03/08 03:25:00;;;;;;;3.70;1.52;;;3.40;76.00;;;;;;4971748;28;20401;-78
2021/03/08 03:27:27;;;;;;;3.28;1.42;;;3.30;76.00;;;;;;4972079;28;20049;-78
2021/03/08 03:29:54;;;;;;;3.42;1.48;;;3.40;76.10;;;;;;4971809;28;20049;-78
2021/03/08 03:32:21;;;;;;;3.13;1.50;;;3.30;76.00;;;;;;4970808;28;20065;-78
2021/03/08 03:34:48;;;;;;;2.88;1.40;;;3.40;76.10;;;;;;4971726;28;20070;-78
2021/03/08 03:37:22;;;;;;;2.83;1.40;;;3.40;76.10;;;;;;4973390;28;20062;-78
2021/03/08 03:39:48;;;;;;;3.83;1.63;;;3.40;76.10;;;;;;4975406;28;20031;-78
2021/03/08 03:42:16;;;;;;;4.22;1.77;;;3.50;76.20;;;;;;4974989;28;20047;-78
2021/03/08 03:44:42;;;;;;;3.45;1.55;;;3.40;76.20;;;;;;4975201;28;20039;-78
2021/03/08 03:47:09;;;;;;;3.22;1.52;;;3.30;76.20;;;;;;4941877;28;20453;-78
2021/03/08 03:49:35;;;;;;;3.60;1.58;;;3.30;76.30;;;;;;4957323;28;20043;-78
2021/03/08 03:52:01;;;;;;;4.13;1.60;;;3.30;76.30;;;;;;4957205;28;20397;-78
2021/03/08 03:54:27;;;;;;;4.63;2.00;;;3.20;76.30;;;;;;4974952;28;20074;-78
2021/03/08 03:56:58;;;;;;;4.78;2.33;;;3.30;76.40;;;;;;4974356;28;20031;-78
2021/03/08 03:59:32;;;;;;;4.28;2.00;;;3.30;76.40;;;;;;4975233;28;20031;-78
2021/03/08 04:02:02;;;;;;;4.75;1.95;;;3.20;76.40;;;;;;4974574;28;20416;-78
2021/03/08 04:04:35;;;;;;;4.80;2.25;;;3.20;76.40;;;;;;4956957;28;20043;-78
2021/03/08 04:07:05;;;;;;;4.95;2.20;;;3.30;76.50;;;;;;4974400;28;20062;-78
2021/03/08 04:09:32;;;;;;;4.50;1.83;;;3.20;76.50;;;;;;4974766;28;20057;-78
2021/03/08 04:11:59;;;;;;;4.28;1.80;;;3.20;76.50;;;;;;4974790;28;20043;-78
2021/03/08 04:14:28;;;;;;;3.70;1.67;;;3.20;76.60;;;;;;4972972;28;20039;-78
2021/03/08 04:16:57;;;;;;;3.53;1.85;;;3.20;76.60;;;;;;4974506;28;20034;-78
2021/03/08 04:19:32;;;;;;;3.42;1.63;;;3.20;76.60;;;;;;4971231;28;20050;-78
2021/03/08 04:22:02;;;;;;;4.18;1.85;;;3.20;76.70;;;;;;4972624;28;20050;-78
2021/03/08 04:24:30;;;;;;;3.33;1.70;;;3.20;76.70;;;;;;4974306;28;20035;-78
2021/03/08 04:27:05;;;;;;;4.00;1.83;;;3.30;76.80;;;;;;4973945;28;20031;-78
2021/03/08 04:29:34;;;;;;;3.78;1.70;;;3.20;76.70;;;;;;4957822;28;20077;-77
2021/03/08 04:32:01;;;;;;;3.35;1.73;;;3.20;76.80;;;;;;4973921;28;20026;-77
2021/03/08 04:34:29;;;;;;;4.25;1.85;;;3.20;76.90;;;;;;4973771;28;20031;-77
2021/03/08 04:36:55;;;;;;;4.07;1.80;;;3.20;76.90;;;;;;4973687;28;20035;-77
2021/03/08 04:39:21;;;;;;;4.13;2.05;;;3.20;76.90;;;;;;4973760;28;20051;-77
2021/03/08 04:41:47;;;;;;;5.00;2.15;;;3.20;76.90;;;;;;4973805;28;20481;-77
2021/03/08 04:44:13;;;;;;;4.05;2.08;;;3.20;76.90;;;;;;4972717;28;20043;-77
2021/03/08 04:46:39;;;;;;;4.75;2.05;;;3.10;76.90;;;;;;4973782;28;20034;-77
2021/03/08 04:49:06;;;;;;;5.28;2.10;;;3.20;76.90;;;;;;4973409;28;20049;-77
2021/03/08 04:51:34;;;;;;;5.25;2.33;;;3.20;76.90;;;;;;4973746;28;20114;-77
2021/03/08 04:54:02;;;;;;;4.72;2.38;;;3.30;77.00;;;;;;4973809;28;20039;-77
2021/03/08 04:56:31;;;;;;;4.18;1.92;;;3.30;77.00;;;;;;4974208;28;20479;-77
2021/03/08 04:58:56;;;;;;;4.47;2.08;;;3.30;77.00;;;;;;4956172;28;20057;-78
2021/03/08 05:01:24;;;;;;;4.35;2.05;;;3.20;77.00;;;;;;4924451;28;20030;-77
2021/03/08 05:03:52;;;;;;;3.53;1.52;;;3.30;77.00;;;;;;4973668;28;20449;-77
2021/03/08 05:06:19;;;;;;;2.67;1.50;;;3.30;77.00;;;;;;4956049;28;20047;-77
2021/03/08 05:08:47;;;;;;;3.95;1.88;;;3.30;77.00;;;;;;4972179;28;20114;-77
2021/03/08 05:11:12;;;;;;;3.45;1.70;;;3.30;77.00;;;;;;4972178;28;20042;-77
2021/03/08 05:13:40;;;;;;;4.85;2.08;;;3.30;77.00;;;;;;4973501;28;20050;-77
2021/03/08 05:16:08;;;;;;;4.15;2.00;;;3.30;77.00;;;;;;4973470;28;20106;-77
2021/03/08 05:18:35;;;;;;;5.03;2.20;;;3.30;77.00;;;;;;4973898;28;20039;-77
2021/03/08 05:21:02;;;;;;;4.38;2.00;;;3.50;77.20;;;;;;4973371;28;20046;-77
2021/03/08 05:23:29;;;;;;;4.30;2.13;;;3.40;77.10;;;;;;4956498;28;20066;-77
2021/03/08 05:25:59;;;;;;;3.75;1.80;;;3.40;77.10;;;;;;4956199;28;20167;-77
2021/03/08 05:28:25;;;;;;;4.38;2.05;;;3.40;77.10;;;;;;4973186;28;20038;-77
2021/03/08 05:30:53;;;;;;;4.97;2.33;;;3.40;77.20;;;;;;4973942;28;20043;-76
2021/03/08 05:33:23;;;;;;;4.88;2.10;;;3.40;77.10;;;;;;4973674;28;20030;-77
2021/03/08 05:35:54;;;;;;;5.28;2.35;;;3.50;77.20;;;;;;4973466;28;20027;-77
2021/03/08 05:38:24;;;;;;;4.57;2.00;;;3.50;77.20;;;;;;4973157;28;20054;-77
2021/03/08 05:41:02;;;;;;;3.63;1.70;;;3.40;77.10;;;;;;4956055;28;20046;-77
2021/03/08 05:43:32;;;;;;;4.43;2.03;;;3.50;77.20;;;;;;4973079;28;20031;-77
2021/03/08 05:46:03;;;;;;;4.10;2.00;;;3.50;77.10;;;;;;4973430;28;20081;-76
2021/03/08 05:49:02;;;;;;;3.50;1.90;;;3.50;77.10;;;;;;4971768;28;20066;-76
2021/03/08 05:52:02;;;;;;;3.95;1.80;;;3.60;77.20;;;;;;4971667;28;20042;-77
2021/03/08 05:54:53;;;;;;;4.13;1.70;;;3.50;77.20;;;;;;4972929;28;20133;-77
2021/03/08 05:57:42;;;;;;;3.58;1.80;;;3.50;77.20;;;;;;4958463;28;20453;-77
2021/03/08 06:00:25;;;;;;;4.68;2.08;;;3.50;77.20;;;;;;4972709;28;20131;-77
2021/03/08 06:02:56;;;;;;;4.63;2.22;;;3.50;77.20;;;;;;4971803;28;20150;-78
2021/03/08 06:05:54;;;;;;;5.45;2.00;;;3.60;77.20;;;;;;4972874;28;20041;-78
2021/03/08 06:08:40;;;;;;;5.03;2.10;;;3.60;77.20;;;;;;4972735;28;20039;-78
2021/03/08 06:11:15;;;;;;;4.50;2.35;;;3.60;77.20;;;;;;4959030;28;20066;-78
2021/03/08 06:13:51;;;;;;;4.90;2.40;;;3.60;77.20;;;;;;4974426;28;20047;-78
2021/03/08 06:16:24;;;;;;;5.22;2.38;;;3.60;77.20;;;;;;4972579;28;20046;-78
2021/03/08 06:18:52;;;;;;;4.72;2.10;;;3.60;77.20;;;;;;4926682;28;20050;-78
2021/03/08 06:21:19;;;;;;;5.43;2.55;;;3.60;77.20;;;;;;4957196;28;20041;-78
2021/03/08 06:23:45;;;;;;;5.78;2.47;;;3.60;77.20;;;;;;4956246;28;20102;-78
2021/03/08 06:26:13;;;;;;;4.63;2.13;;;3.70;77.30;;;;;;4972479;28;20038;-78
2021/03/08 06:28:40;;;;;;;5.13;2.20;;;3.60;77.20;;;;;;4955900;28;20046;-78
2021/03/08 06:31:07;;;;;;;4.53;2.30;;;3.60;77.20;;;;;;4972859;28;20039;-78
2021/03/08 06:33:34;;;;;;;4.30;2.10;;;3.70;77.30;;;;;;4956336;28;20499;-78
2021/03/08 06:36:01;;;;;;;4.88;2.35;;;3.70;77.30;;;;;;4973813;28;20038;-78
2021/03/08 06:38:30;;;;;;;4.93;2.50;;;3.60;77.20;;;;;;4971314;28;20043;-78
2021/03/08 06:40:56;;;;;;;5.70;2.45;;;3.70;77.30;;;;;;4972911;28;20038;-78
2021/03/08 06:43:22;;;;;;;5.18;2.58;;;3.70;77.30;;;;;;4955741;28;20093;-78
2021/03/08 06:45:47;;;;;;;4.80;2.20;;;3.70;77.30;;;;;;4973503;28;20191;-78
2021/03/08 06:48:13;;;;;;;5.32;2.58;;;3.80;77.40;;;;;;4955504;28;20628;-78
2021/03/08 06:50:39;;;;;;;6.00;2.85;;;3.80;77.40;;;;;;4972731;28;20055;-78
2021/03/08 06:53:05;;;;;;;6.90;2.75;;;3.80;77.40;;;;;;4972655;28;20038;-78
2021/03/08 06:55:31;;;;;;;5.85;2.45;;;3.80;77.40;;;;;;4972460;28;20038;-78
2021/03/08 06:58:17;;;;;;;4.97;2.38;;;3.90;77.40;;;;;;4970716;28;20453;-78
2021/03/08 07:00:43;;;;;;;4.95;2.25;;;3.80;77.40;;;;;;4955456;28;20039;-78
2021/03/08 07:03:29;;;;;;;5.43;2.33;;;3.90;77.40;;;;;;4971145;28;20035;-78
2021/03/08 07:05:55;;;;;;;5.57;2.53;;;3.90;77.40;;;;;;4974171;28;20067;-78
2021/03/08 07:08:24;;;;;;;5.40;2.78;;;3.90;77.40;;;;;;4973313;28;20038;-78
2021/03/08 07:10:50;;;;;;;6.05;2.83;;;3.90;77.40;;;;;;4956381;28;20038;-77
2021/03/08 07:13:15;;;;;;;6.20;2.83;;;3.90;77.40;;;;;;4976288;28;20035;-78
2021/03/08 07:16:00;;;;;;;5.93;2.67;;;3.90;77.40;;;;;;4976426;28;20034;-77
2021/03/08 07:18:26;;;;;;;6.18;3.00;;;4.00;77.40;;;;;;4975013;28;20043;-78
2021/03/08 07:20:53;;;;;;;7.07;3.50;;;4.00;77.30;;;;;;4974848;28;20038;-78
2021/03/08 07:23:26;;;;;;;5.30;2.65;;;4.00;77.30;;;;;;4973512;28;20385;-78
2021/03/08 07:26:10;;;;;;;6.35;2.65;;;4.00;77.30;;;;;;4975175;28;20201;-79
2021/03/08 07:28:36;;;;;;;5.50;2.55;;;4.10;77.30;;;;;;4974696;28;20043;-78
2021/03/08 07:31:01;;;;;;;5.72;2.83;;;4.20;77.30;;;;;;4957892;28;20050;-78
2021/03/08 07:33:28;;;;;;;5.05;2.22;;;4.20;77.30;;;;;;4975667;28;20038;-78
2021/03/08 07:35:54;;;;;;;5.97;2.78;;;4.20;77.20;;;;;;4957958;28;20045;-78
2021/03/08 07:38:34;;;;;;;6.35;2.90;;;4.30;77.20;;;;;;4957754;28;20047;-78
2021/03/08 07:41:14;;;;;;;6.78;2.85;;;4.30;77.20;;;;;;4975746;28;20035;-79
2021/03/08 07:43:41;;;;;;;6.38;2.90;;;4.40;77.10;;;;;;4958421;28;20592;-79
2021/03/08 07:46:26;;;;;;;6.47;3.05;;;4.50;77.10;;;;;;4975782;28;20058;-78
2021/03/08 07:48:53;;;;;;;6.75;2.95;;;4.40;76.90;;;;;;4958559;28;20035;-75
2021/03/08 07:51:18;;;;;;;5.93;2.88;;;4.50;76.90;;;;;;4957718;28;20058;-75
2021/03/08 07:53:44;;;;;;;6.30;2.85;;;4.50;76.90;;;;;;4974543;28;20035;-75
2021/03/08 07:56:10;;;;;;;6.97;3.15;;;4.50;76.90;;;;;;4957732;28;20049;-74
2021/03/08 07:58:37;;;;;;;6.38;2.90;;;4.50;76.90;;;;;;4975255;28;20078;-74
2021/03/08 08:01:06;;;;;;;6.15;2.72;;;4.50;76.90;;;;;;4974686;28;20062;-74
2021/03/08 08:03:34;;;;;;;7.10;2.90;;;4.60;76.90;;;;;;4974515;28;20451;-73
2021/03/08 08:06:04;;;;;;;6.30;3.30;;;4.70;77.00;;;;;;4974445;28;20447;-76
2021/03/08 08:08:31;;;;;;;8.95;3.35;;;4.70;76.90;;;;;;4974129;28;20093;-77
2021/03/08 08:10:59;;;;;;;5.22;2.55;;;4.80;76.90;;;;;;4956884;28;20150;-73
2021/03/08 08:13:34;;;;;;;6.80;3.13;;;4.80;76.90;;;;;;4974181;28;20039;-72
2021/03/08 08:16:06;;;;;;;8.32;3.30;;;4.80;76.90;;;;;;4957033;28;20035;-76
2021/03/08 08:18:35;;;;;;;5.30;2.65;;;4.80;76.80;;;;;;4973921;28;20382;-73
2021/03/08 08:21:01;;;;;;;5.13;2.53;;;4.90;76.90;;;;;;4974409;28;20089;-73
2021/03/08 08:23:31;;;;;;;6.63;3.10;;;4.90;76.80;;;;;;4956625;28;20039;-75
2021/03/08 08:25:57;;;;;;;6.57;3.38;;;5.00;76.80;;;;;;4972120;28;20058;-75
2021/03/08 08:28:23;;;;;;;9.45;4.22;;;5.00;76.70;;;;;;4956904;28;20041;-78
2021/03/08 08:30:59;;;;;;;6.53;3.25;;;5.10;76.80;;;;;;4939852;28;20031;-76
2021/03/08 08:33:28;;;;;;;6.65;3.03;;;5.20;76.80;;;;;;4974607;28;20027;-77
2021/03/08 08:36:15;;;;;;;6.82;2.78;;;5.20;76.60;;;;;;4974439;28;20030;-77
2021/03/08 08:39:13;;;;;;;7.03;3.05;;;5.20;76.50;;;;;;4974217;28;20073;-78
2021/03/08 08:41:39;;;;;;;7.40;3.00;;;5.30;76.50;;;;;;4973912;28;20058;-77
2021/03/08 08:44:27;;;;;;;8.15;3.05;;;5.40;76.40;;;;;;4973992;28;20492;-78
2021/03/08 08:47:13;;;;;;;7.75;2.95;;;5.40;76.40;;;;;;4927694;28;20604;-77
2021/03/08 08:49:40;;;;;;;6.50;3.33;;;5.50;76.30;;;;;;4973523;28;20042;-76
2021/03/08 08:52:06;;;;;;;6.53;3.03;;;5.50;76.20;;;;;;4972506;28;20043;-78
2021/03/08 08:54:50;;;;;;;7.35;3.38;;;5.60;76.20;;;;;;4956263;28;20058;-79
2021/03/08 08:57:19;;;;;;;8.13;3.45;;;5.70;76.30;;;;;;4973881;28;20075;-79
2021/03/08 08:59:49;;;;;;;10.40;4.75;;;5.60;76.10;;;;;;4974044;28;20125;-76
2021/03/08 09:02:34;;;;;;;6.82;3.33;;;5.60;76.00;;;;;;4974090;28;20082;-81
2021/03/08 09:05:03;;;;;;;6.85;3.40;;;5.60;76.00;;;;;;4973563;28;20031;-80
2021/03/08 09:07:29;;;;;;;6.55;3.22;;;5.70;76.10;;;;;;4956511;28;20502;-76
2021/03/08 09:09:58;;;;;;;6.07;2.95;;;5.80;76.10;;;;;;4956378;28;20441;-75
2021/03/08 09:12:33;;;;;;;6.82;3.35;;;5.70;76.10;;;;;;4974209;28;20035;-75
2021/03/08 09:15:01;;;;;;;6.22;3.05;;;5.80;76.20;;;;;;4973300;28;20087;-74
2021/03/08 09:17:42;;;;;;;6.65;3.10;;;5.80;76.20;;;;;;4972096;28;20054;-74
2021/03/08 09:20:25;;;;;;;6.80;3.20;;;5.90;76.20;;;;;;4973576;28;20035;-75
2021/03/08 09:22:55;;;;;;;5.15;2.45;;;5.90;76.10;;;;;;4973806;28;20069;-76
2021/03/08 09:25:27;;;;;;;5.78;2.80;;;5.90;75.90;;;;;;4973559;28;20030;-77
2021/03/08 09:28:02;;;;;;;6.00;3.03;;;5.90;76.00;;;;;;4974084;28;20033;-74
2021/03/08 09:30:33;;;;;;;6.75;3.10;;;6.00;76.10;;;;;;4973803;28;20121;-78
2021/03/08 09:33:05;;;;;;;5.97;2.83;;;6.10;76.00;;;;;;4954789;28;20058;-77
2021/03/08 09:35:52;;;;;;;6.05;3.25;;;6.20;76.00;;;;;;4971679;28;20062;-79
2021/03/08 09:38:21;;;;;;;5.47;2.70;;;6.30;75.80;;;;;;4958444;28;20047;-75
2021/03/08 09:40:50;;;;;;;5.80;2.92;;;6.40;75.70;;;;;;4973353;28;20061;-77
2021/03/08 09:43:28;;;;;;;6.22;3.00;;;6.50;75.50;;;;;;4973303;28;20042;-77
2021/03/08 09:46:03;;;;;;;5.43;2.97;;;6.50;75.30;;;;;;4973574;28;20035;-76
2021/03/08 09:48:30;;;;;;;7.30;3.58;;;6.60;75.10;;;;;;4973485;28;20046;-77
2021/03/08 09:51:06;;;;;;;5.47;2.75;;;6.70;75.10;;;;;;4973207;28;20043;-75
2021/03/08 09:53:35;;;;;;;5.38;2.50;;;6.70;75.00;;;;;;4973084;28;20031;-76
2021/03/08 09:56:10;;;;;;;5.88;2.90;;;6.80;75.00;;;;;;4973370;28;20501;-75
2021/03/08 09:58:37;;;;;;;5.68;2.92;;;7.00;75.00;;;;;;4972881;28;20043;-77
2021/03/08 10:01:16;;;;;;;8.02;3.58;;;7.00;74.70;;;;;;4972676;28;20035;-77
2021/03/08 10:03:42;;;;;;;7.38;3.67;;;7.10;74.60;;;;;;4973325;28;20462;-77
2021/03/08 10:06:19;;;;;;;6.40;3.67;;;7.10;74.50;;;;;;4972791;28;20043;-76
2021/03/08 10:08:45;;;;;;;8.00;4.03;;;7.20;74.50;;;;;;4972949;28;20042;-77
2021/03/08 10:11:20;;;;;;;7.25;3.67;;;7.20;74.50;;;;;;4972842;28;20034;-77
2021/03/08 10:13:46;;;;;;;7.47;3.67;;;7.20;74.40;;;;;;4973308;28;20073;-76
2021/03/08 10:16:19;;;;;;;7.00;3.42;;;7.30;74.50;;;;;;4972920;28;20070;-78
2021/03/08 10:18:45;;;;;;;6.60;3.47;;;7.50;74.30;;;;;;4972057;28;20047;-77
2021/03/08 10:21:11;;;;;;;8.00;4.00;;;7.60;74.20;;;;;;4973934;28;20031;-79
2021/03/08 10:23:36;;;;;;;6.45;3.22;;;7.60;74.00;;;;;;4939975;28;20126;-80
2021/03/08 10:26:07;;;;;;;6.35;3.30;;;7.80;73.90;;;;;;4938961;28;20444;-79
2021/03/08 10:28:40;;;;;;;5.80;2.90;;;7.90;73.90;;;;;;4930964;29;20039;-79
2021/03/08 10:31:15;;;;;;;6.40;3.17;;;8.10;73.80;;;;;;4916599;29;20039;-77
2021/03/08 10:33:44;;;;;;;8.10;3.65;;;8.10;73.60;;;;;;4932004;29;20078;-78
2021/03/08 10:36:10;;;;;;;6.57;3.38;;;8.20;73.60;;;;;;4931970;29;20047;-78
2021/03/08 10:38:37;;;;;;;6.63;3.40;;;8.20;73.50;;;;;;4931479;29;20495;-76
2021/03/08 10:41:05;;;;;;;6.25;3.60;;;8.20;73.50;;;;;;4930140;29;20039;-76
2021/03/08 10:43:31;;;;;;;7.28;3.78;;;8.10;73.70;;;;;;4932042;29;20032;-76
2021/03/08 10:46:00;;;;;;;6.43;3.50;;;8.30;74.00;;;;;;4933482;29;20175;-78
2021/03/08 10:48:27;;;;;;;6.15;3.20;;;8.30;73.80;;;;;;4919680;29;20521;-77
2021/03/08 10:50:56;;;;;;;5.72;2.97;;;8.40;73.90;;;;;;4935388;29;20524;-77
2021/03/08 10:53:23;;;;;;;6.20;2.70;;;8.40;73.90;;;;;;4935299;29;20099;-76
2021/03/08 10:55:50;;;;;;;5.47;2.65;;;8.50;73.80;;;;;;4933454;29;20074;-78
2021/03/08 10:58:16;;;;;;;5.85;3.13;;;8.60;73.70;;;;;;4935383;28;20529;-76
2021/03/08 11:00:44;;;;;;;5.70;2.83;;;8.70;73.50;;;;;;4975708;28;20035;-75
2021/03/08 11:03:43;;;;;;;6.47;3.05;;;8.80;73.50;;;;;;4975736;28;20121;-75
2021/03/08 11:06:10;;;;;;;6.20;3.05;;;8.70;73.40;;;;;;4976214;28;20093;-75
2021/03/08 11:08:38;;;;;;;6.85;3.63;;;8.80;73.40;;;;;;4975616;28;20478;-75
2021/03/08 11:11:20;;;;;;;6.63;3.55;;;8.90;73.60;;;;;;4975072;28;20117;-75
2021/03/08 11:13:48;;;;;;;6.88;3.85;;;8.80;73.60;;;;;;4959523;28;20035;-78
2021/03/08 11:16:15;;;;;;;6.75;3.53;;;8.70;73.70;;;;;;4975931;28;20516;-78
2021/03/08 11:18:42;;;;;;;6.80;3.38;;;8.80;73.90;;;;;;4976620;28;20049;-75
2021/03/08 11:21:28;;;;;;;8.57;4.28;;;8.90;73.90;;;;;;4978166;28;20043;-77
2021/03/08 11:24:13;;;;;;;8.10;4.40;;;8.80;73.60;;;;;;4977431;28;20031;-76
2021/03/08 11:26:39;;;;;;;8.02;3.92;;;8.90;73.70;;;;;;4978473;28;20563;-77
2021/03/08 11:29:05;;;;;;;8.27;4.03;;;9.00;73.50;;;;;;4976485;28;20105;-77
2021/03/08 11:31:30;;;;;;;7.43;3.90;;;9.20;73.40;;;;;;4976746;28;20039;-77
2021/03/08 11:33:56;;;;;;;7.43;3.92;;;9.40;73.10;;;;;;4975241;28;20070;-78
2021/03/08 11:36:37;;;;;;;7.20;3.80;;;9.40;72.90;;;;;;4957933;28;20050;-78
2021/03/08 11:39:05;;;;;;;6.65;3.72;;;9.40;73.60;;;;;;4974709;28;20043;-78
2021/03/08 11:41:31;;;;;;;6.55;3.35;;;9.40;72.90;;;;;;4958827;28;20046;-76
2021/03/08 11:43:57;;;;;;;6.95;4.07;;;9.40;72.90;;;;;;4957551;28;20097;-77
2021/03/08 11:46:23;;;;;;;7.07;3.60;;;9.50;73.10;;;;;;4970940;28;20058;-76
2021/03/08 11:48:49;;;;;;;6.78;3.90;;;9.60;73.20;;;;;;4958193;28;20128;-77
2021/03/08 11:51:19;;;;;;;6.80;3.80;;;9.50;72.60;;;;;;4957936;28;20035;-78
2021/03/08 11:53:46;;;;;;;7.15;3.78;;;9.50;72.90;;;;;;4976286;28;20053;-77
2021/03/08 11:56:12;;;;;;;6.30;3.70;;;9.50;72.90;;;;;;4957191;28;20049;-77
2021/03/08 11:58:38;;;;;;;7.57;3.80;;;9.70;72.90;;;;;;4957684;28;20137;-76
2021/03/08 12:01:03;;;;;;;5.95;3.28;;;9.60;72.80;;;;;;4974932;28;20449;-75
2021/03/08 12:03:29;;;;;;;7.20;3.13;;;9.80;72.80;;;;;;4974277;28;20051;-75
2021/03/08 12:05:55;;;;;;;6.82;3.80;;;10.00;72.70;;;;;;4974462;28;20039;-76
2021/03/08 12:08:20;;;;;;;5.90;3.20;;;10.00;72.40;;;;;;4974373;28;20050;-78
2021/03/08 12:10:46;;;;;;;6.55;3.60;;;10.10;72.10;;;;;;4974375;28;20038;-79
2021/03/08 12:13:12;;;;;;;5.70;3.40;;;10.10;71.90;;;;;;4974735;28;20378;-76
2021/03/08 12:15:37;;;;;;;6.53;3.72;;;10.10;72.00;;;;;;4974762;28;20046;-75
2021/03/08 12:18:03;;;;;;;7.20;3.95;;;9.90;72.20;;;;;;4974136;28;20137;-78
2021/03/08 12:20:29;;;;;;;7.57;4.25;;;9.90;72.40;;;;;;4974486;28;20482;-77
2021/03/08 12:22:55;;;;;;;8.18;4.63;;;9.70;72.60;;;;;;4957150;28;20033;-78
2021/03/08 12:25:20;;;;;;;6.88;4.00;;;9.70;72.90;;;;;;4974380;28;20035;-77
2021/03/08 12:27:46;;;;;;;7.32;4.10;;;9.70;72.90;;;;;;4958473;28;20070;-76
2021/03/08 12:30:13;;;;;;;7.03;3.85;;;9.90;72.60;;;;;;4974298;28;20561;-75
2021/03/08 12:32:40;;;;;;;6.38;3.70;;;9.90;72.50;;;;;;4974745;28;20050;-77
2021/03/08 12:35:07;;;;;;;6.25;3.55;;;9.90;72.60;;;;;;4956910;28;20437;-77
2021/03/08 12:37:32;;;;;;;7.90;4.55;;;9.90;72.50;;;;;;4974166;28;20038;-76
2021/03/08 12:39:59;;;;;;;6.70;3.60;;;9.90;72.50;;;;;;4974838;28;20359;-76
2021/03/08 12:42:24;;;;;;;7.05;3.60;;;9.90;72.60;;;;;;4975630;28;20035;-78
2021/03/08 12:44:50;;;;;;;6.57;3.67;;;9.80;72.70;;;;;;4974179;28;20366;-76
2021/03/08 12:47:16;;;;;;;7.90;4.40;;;9.70;72.90;;;;;;4973876;28;20066;-76
2021/03/08 12:49:41;;;;;;;6.70;3.97;;;9.60;72.90;;;;;;4974625;28;20042;-75
2021/03/08 12:52:07;;;;;;;6.55;3.80;;;9.60;73.20;;;;;;4973890;28;20448;-77
2021/03/08 12:54:33;;;;;;;7.20;4.25;;;9.70;73.10;;;;;;4974223;28;20070;-76
2021/03/08 12:56:59;;;;;;;7.28;3.55;;;9.70;73.00;;;;;;4973504;28;20027;-75
2021/03/08 12:59:26;;;;;;;8.15;4.43;;;9.70;72.80;;;;;;4954472;28;20145;-74
2021/03/08 13:01:51;;;;;;;6.05;3.55;;;9.70;72.90;;;;;;4973650;28;20035;-75
2021/03/08 13:04:17;;;;;;;6.35;3.63;;;9.70;72.90;;;;;;4973667;28;20366;-75
2021/03/08 13:06:43;;;;;;;6.15;3.58;;;9.70;72.70;;;;;;4956677;28;20106;-76
2021/03/08 13:09:09;;;;;;;6.10;3.50;;;9.80;72.70;;;;;;4972684;28;20031;-78
2021/03/08 13:11:34;;;;;;;6.13;3.40;;;9.80;72.40;;;;;;4957711;28;20050;-76